Time;durP1;ratioP1;P1;durP2;ratioP2;P2;SDS_P1;SDS_P2;PMS_P1;PMS_P2;Temp;Humidity;BMP_temperature;BMP_pressure;BME280_temperature;BME280_humidity;BME280_pressure;Samples;Min_cycle;Max_cycle;Signal;HPM_P1;HPM_P2
2023/04/07 00:02:21;;;;;;;0.80;0.80;;;;;;;-128.00;-1.00;-1.00;102995;1256;1004927;-50
2023/04/07 00:04:49;;;;;;;0.90;0.80;;;;;;;-128.00;-1.00;-1.00;103156;1256;1012556;-53
2023/04/07 00:07:18;;;;;;;1.00;0.90;;;;;;;-128.00;-1.00;-1.00;103905;1256;1010213;-51
2023/04/07 00:09:47;;;;;;;1.00;0.90;;;;;;;-128.00;-1.00;-1.00;102844;1254;1011685;-51
2023/04/07 00:12:15;;;;;;;1.10;1.00;;;;;;;-128.00;-1.00;-1.00;102982;1257;1003405;-49
2023/04/07 00:14:44;;;;;;;0.90;0.90;;;;;;;-128.00;-1.00;-1.00;106424;1254;1012933;-51
2023/04/07 00:17:16;;;;;;;1.10;1.00;;;;;;;-128.00;-1.00;-1.00;106545;1254;1013075;-49
2023/04/07 00:19:44;;;;;;;0.90;0.90;;;;;;;-128.00;-1.00;-1.00;106530;1253;1002399;-50
2023/04/07 00:22:12;;;;;;;1.60;0.70;;;;;;;-128.00;-1.00;-1.00;106431;1256;1002618;-49
2023/04/07 00:24:40;;;;;;;0.80;0.80;;;;;;;-128.00;-1.00;-1.00;106524;1254;1002876;-51
2023/04/07 00:27:08;;;;;;;0.90;0.80;;;;;;;-128.00;-1.00;-1.00;106487;1254;1002387;-52
2023/04/07 00:29:36;;;;;;;2.30;0.70;;;;;;;-128.00;-1.00;-1.00;106566;1254;1002321;-51
2023/04/07 00:32:06;;;;;;;0.70;0.70;;;;;;;-128.00;-1.00;-1.00;106518;1254;1010739;-50
2023/04/07 00:34:34;;;;;;;0.70;0.70;;;;;;;-128.00;-1.00;-1.00;106505;1254;1011615;-50
2023/04/07 00:37:02;;;;;;;1.10;0.60;;;;;;;-128.00;-1.00;-1.00;104254;1253;1013086;-51
2023/04/07 00:39:31;;;;;;;0.60;0.60;;;;;;;-128.00;-1.00;-1.00;106542;1253;1013131;-52
2023/04/07 00:41:59;;;;;;;0.60;0.60;;;;;;;-128.00;-1.00;-1.00;106475;1253;1013325;-53
2023/04/07 00:44:28;;;;;;;0.60;0.60;;;;;;;-128.00;-1.00;-1.00;106393;1253;1010092;-52
2023/04/07 00:46:56;;;;;;;0.50;0.50;;;;;;;-128.00;-1.00;-1.00;106552;1254;1002720;-52
2023/04/07 00:49:27;;;;;;;2.30;0.50;;;;;;;-128.00;-1.00;-1.00;106357;1254;1014151;-52
2023/04/07 00:51:56;;;;;;;0.50;0.50;;;;;;;-128.00;-1.00;-1.00;106568;1253;1012520;-52
2023/04/07 00:54:26;;;;;;;0.50;0.50;;;;;;;-128.00;-1.00;-1.00;106547;1254;1013251;-52
2023/04/07 00:56:54;;;;;;;0.40;0.40;;;;;;;-128.00;-1.00;-1.00;106555;1254;1002223;-52
2023/04/07 00:59:22;;;;;;;1.80;0.50;;;;;;;-128.00;-1.00;-1.00;105257;1254;1002736;-50
2023/04/07 01:02:05;;;;;;;0.50;0.50;;;;;;;-128.00;-1.00;-1.00;103371;1254;1013599;-51
2023/04/07 01:04:40;;;;;;;0.40;0.40;;;;;;;-128.00;-1.00;-1.00;106260;1253;1012978;-51
2023/04/07 01:07:14;;;;;;;0.40;0.40;;;;;;;-128.00;-1.00;-1.00;103915;1254;1012414;-50
2023/04/07 01:09:47;;;;;;;0.70;0.50;;;;;;;-128.00;-1.00;-1.00;104494;1254;1010424;-47
2023/04/07 01:12:31;;;;;;;0.50;0.50;;;;;;;-128.00;-1.00;-1.00;103470;1253;1011416;-52
2023/04/07 01:15:05;;;;;;;0.40;0.40;;;;;;;-128.00;-1.00;-1.00;104181;1254;1013043;-52
2023/04/07 01:17:44;;;;;;;0.40;0.40;;;;;;;-128.00;-1.00;-1.00;103624;1257;1012450;-49
2023/04/07 01:20:15;;;;;;;0.40;0.40;;;;;;;-128.00;-1.00;-1.00;103040;1253;1012085;-52
2023/04/07 01:22:53;;;;;;;0.30;0.30;;;;;;;-128.00;-1.00;-1.00;103071;1253;1010231;-49
2023/04/07 01:25:22;;;;;;;0.30;0.30;;;;;;;-128.00;-1.00;-1.00;103512;1258;1011872;-51
2023/04/07 01:28:14;;;;;;;0.30;0.20;;;;;;;-128.00;-1.00;-1.00;103524;1254;1013370;-52
2023/04/07 01:30:42;;;;;;;0.20;0.20;;;;;;;-128.00;-1.00;-1.00;102822;1256;1012301;-53
2023/04/07 01:33:11;;;;;;;0.20;0.20;;;;;;;-128.00;-1.00;-1.00;102772;1259;1013511;-53
2023/04/07 01:35:39;;;;;;;0.20;0.20;;;;;;;-128.00;-1.00;-1.00;102772;1260;1003271;-52
2023/04/07 01:38:07;;;;;;;0.20;0.20;;;;;;;-128.00;-1.00;-1.00;102632;1261;1002549;-54
2023/04/07 01:40:35;;;;;;;0.30;0.30;;;;;;;-128.00;-1.00;-1.00;103455;1257;1014014;-53
2023/04/07 01:43:04;;;;;;;0.80;0.30;;;;;;;-128.00;-1.00;-1.00;103424;1259;1002938;-52
2023/04/07 01:45:33;;;;;;;0.30;0.30;;;;;;;-128.00;-1.00;-1.00;103041;1259;1012603;-52
2023/04/07 01:48:04;;;;;;;0.30;0.30;;;;;;;-128.00;-1.00;-1.00;103530;1256;1010189;-52
2023/04/07 01:50:32;;;;;;;0.30;0.30;;;;;;;-128.00;-1.00;-1.00;103081;1259;1011795;-54
2023/04/07 01:53:01;;;;;;;0.30;0.30;;;;;;;-128.00;-1.00;-1.00;103265;1256;1013084;-51
2023/04/07 01:55:29;;;;;;;0.30;0.30;;;;;;;-128.00;-1.00;-1.00;103185;1260;1003374;-52
2023/04/07 01:58:09;;;;;;;0.30;0.30;;;;;;;-128.00;-1.00;-1.00;103160;1253;1012198;-53
2023/04/07 02:00:40;;;;;;;0.30;0.30;;;;;;;-128.00;-1.00;-1.00;103055;1256;1010544;-53
2023/04/07 02:03:19;;;;;;;0.30;0.30;;;;;;;-128.00;-1.00;-1.00;102977;1258;1011788;-51
2023/04/07 02:05:50;;;;;;;0.30;0.30;;;;;;;-128.00;-1.00;-1.00;103305;1256;1013115;-48
2023/04/07 02:08:19;;;;;;;0.30;0.30;;;;;;;-128.00;-1.00;-1.00;103412;1257;1011773;-51
2023/04/07 02:10:52;;;;;;;0.30;0.30;;;;;;;-128.00;-1.00;-1.00;102933;1259;1012906;-50
2023/04/07 02:13:21;;;;;;;0.30;0.30;;;;;;;-128.00;-1.00;-1.00;102723;1262;1010436;-51
2023/04/07 02:15:49;;;;;;;0.30;0.30;;;;;;;-128.00;-1.00;-1.00;102924;1259;1010282;-48
2023/04/07 02:18:18;;;;;;;0.50;0.40;;;;;;;-128.00;-1.00;-1.00;103759;1259;1012742;-52
2023/04/07 02:20:46;;;;;;;2.10;0.30;;;;;;;-128.00;-1.00;-1.00;102953;1260;1002910;-52
2023/04/07 02:23:15;;;;;;;0.20;0.20;;;;;;;-128.00;-1.00;-1.00;103466;1254;1012780;-50
2023/04/07 02:25:43;;;;;;;0.30;0.30;;;;;;;-128.00;-1.00;-1.00;103194;1254;1009800;-51
2023/04/07 02:28:11;;;;;;;0.60;0.40;;;;;;;-128.00;-1.00;-1.00;103238;1257;1002541;-51
2023/04/07 02:30:39;;;;;;;0.30;0.30;;;;;;;-128.00;-1.00;-1.00;103011;1258;1002875;-51
2023/04/07 02:33:08;;;;;;;0.40;0.40;;;;;;;-128.00;-1.00;-1.00;102776;1254;1013694;-52
2023/04/07 02:35:36;;;;;;;0.50;0.50;;;;;;;-128.00;-1.00;-1.00;102757;1258;1003060;-52
2023/04/07 02:38:04;;;;;;;0.30;0.30;;;;;;;-128.00;-1.00;-1.00;103442;1259;1002770;-52
2023/04/07 02:40:36;;;;;;;0.90;0.40;;;;;;;-128.00;-1.00;-1.00;102877;1258;1010947;-51
2023/04/07 02:43:04;;;;;;;0.40;0.30;;;;;;;-128.00;-1.00;-1.00;102786;1258;1012433;-53
2023/04/07 02:45:33;;;;;;;0.30;0.30;;;;;;;-128.00;-1.00;-1.00;102773;1257;1013522;-53
2023/04/07 02:48:04;;;;;;;0.60;0.30;;;;;;;-128.00;-1.00;-1.00;103050;1254;1012366;-53
2023/04/07 02:50:33;;;;;;;0.30;0.20;;;;;;;-128.00;-1.00;-1.00;103184;1259;1010705;-51
2023/04/07 02:53:01;;;;;;;0.30;0.30;;;;;;;-128.00;-1.00;-1.00;102943;1254;1002196;-52
2023/04/07 02:55:30;;;;;;;0.30;0.30;;;;;;;-128.00;-1.00;-1.00;104785;1258;1013727;-52
2023/04/07 02:57:58;;;;;;;0.40;0.30;;;;;;;-128.00;-1.00;-1.00;102906;1257;1002781;-52
2023/04/07 03:00:37;;;;;;;0.40;0.40;;;;;;;-128.00;-1.00;-1.00;102866;1259;1012481;-52
2023/04/07 03:03:11;;;;;;;0.40;0.40;;;;;;;-128.00;-1.00;-1.00;106511;1254;1009792;-52
2023/04/07 03:05:42;;;;;;;0.40;0.40;;;;;;;-128.00;-1.00;-1.00;106441;1254;1010520;-51
2023/04/07 03:08:10;;;;;;;0.60;0.50;;;;;;;-128.00;-1.00;-1.00;106346;1254;1002186;-52
2023/04/07 03:10:40;;;;;;;0.50;0.50;;;;;;;-128.00;-1.00;-1.00;106441;1254;1012180;-52
2023/04/07 03:13:11;;;;;;;0.30;0.30;;;;;;;-128.00;-1.00;-1.00;106435;1254;1013285;-52
2023/04/07 03:15:44;;;;;;;0.40;0.40;;;;;;;-128.00;-1.00;-1.00;106426;1254;1010441;-56
2023/04/07 03:18:16;;;;;;;0.30;0.30;;;;;;;-128.00;-1.00;-1.00;106446;1254;1011313;-54
2023/04/07 03:20:47;;;;;;;0.30;0.30;;;;;;;-128.00;-1.00;-1.00;106493;1254;1012782;-53
2023/04/07 03:23:16;;;;;;;0.20;0.20;;;;;;;-128.00;-1.00;-1.00;106399;1254;1012756;-52
2023/04/07 03:25:44;;;;;;;0.40;0.30;;;;;;;-128.00;-1.00;-1.00;106354;1254;1012891;-53
2023/04/07 03:28:15;;;;;;;0.30;0.30;;;;;;;-128.00;-1.00;-1.00;104283;1260;1010891;-49
2023/04/07 03:30:46;;;;;;;0.30;0.30;;;;;;;-128.00;-1.00;-1.00;102873;1259;1010699;-55
2023/04/07 03:33:14;;;;;;;0.30;0.30;;;;;;;-128.00;-1.00;-1.00;106488;1254;1012784;-53
2023/04/07 03:35:42;;;;;;;0.30;0.30;;;;;;;-128.00;-1.00;-1.00;106378;1259;1002288;-52
2023/04/07 03:38:10;;;;;;;0.30;0.30;;;;;;;-128.00;-1.00;-1.00;103296;1260;1013129;-49
2023/04/07 03:40:39;;;;;;;0.50;0.30;;;;;;;-128.00;-1.00;-1.00;104089;1259;1002785;-53
2023/04/07 03:43:12;;;;;;;0.30;0.30;;;;;;;-128.00;-1.00;-1.00;106445;1254;1011448;-53
2023/04/07 03:45:41;;;;;;;0.40;0.40;;;;;;;-128.00;-1.00;-1.00;106490;1259;1012835;-53
2023/04/07 03:48:10;;;;;;;0.30;0.30;;;;;;;-128.00;-1.00;-1.00;106396;1254;1012041;-53
2023/04/07 03:50:45;;;;;;;0.30;0.30;;;;;;;-128.00;-1.00;-1.00;104243;1254;1013328;-52
2023/04/07 03:53:18;;;;;;;0.30;0.30;;;;;;;-128.00;-1.00;-1.00;106351;1258;1009849;-53
2023/04/07 03:55:46;;;;;;;0.40;0.40;;;;;;;-128.00;-1.00;-1.00;103031;1260;1011954;-52
2023/04/07 03:58:21;;;;;;;0.80;0.50;;;;;;;-128.00;-1.00;-1.00;105230;1257;1013003;-52
2023/04/07 04:00:49;;;;;;;0.40;0.40;;;;;;;-128.00;-1.00;-1.00;103143;1258;1002830;-51
2023/04/07 04:03:18;;;;;;;0.40;0.40;;;;;;;-128.00;-1.00;-1.00;102983;1260;1012989;-52
2023/04/07 04:06:16;;;;;;;0.50;0.40;;;;;;;-128.00;-1.00;-1.00;102727;1260;1010930;-53
2023/04/07 04:08:44;;;;;;;0.50;0.50;;;;;;;-128.00;-1.00;-1.00;103004;1257;1010807;-52
2023/04/07 04:11:13;;;;;;;0.40;0.40;;;;;;;-128.00;-1.00;-1.00;106151;1256;1014402;-52
2023/04/07 04:13:52;;;;;;;1.10;0.40;;;;;;;-128.00;-1.00;-1.00;102884;1260;1012668;-52
2023/04/07 04:16:21;;;;;;;0.50;0.50;;;;;;;-128.00;-1.00;-1.00;103633;1260;1013502;-52
2023/04/07 04:18:49;;;;;;;0.60;0.50;;;;;;;-128.00;-1.00;-1.00;102789;1258;1009936;-51
2023/04/07 04:21:22;;;;;;;0.50;0.50;;;;;;;-128.00;-1.00;-1.00;102771;1260;1011177;-52
2023/04/07 04:23:51;;;;;;;0.60;0.60;;;;;;;-128.00;-1.00;-1.00;102948;1260;1012955;-52
2023/04/07 04:26:24;;;;;;;1.20;1.10;;;;;;;-128.00;-1.00;-1.00;102730;1255;1012546;-52
2023/04/07 04:30:01;;;;;;;16.20;13.90;;;;;;;;;;102743;1287;599793;-51
2023/04/07 04:32:38;;;;;;;4.10;3.80;;;;;;;;;;104580;1265;59268;-52
2023/04/07 04:35:06;;;;;;;23.30;16.00;;;;;;;;;;104726;1267;58972;-51
2023/04/07 04:37:40;;;;;;;44.10;26.50;;;;;;;;;;104625;1264;60507;-52
2023/04/07 04:40:11;;;;;;;39.70;26.40;;;;;;;;;;104940;1265;58957;-52
2023/04/07 04:42:40;;;;;;;31.30;21.00;;;;;;;;;;105950;1263;202232;-52
2023/04/07 04:45:09;;;;;;;12.10;10.70;;;;;;;;;;106404;1262;59025;-52
2023/04/07 04:47:39;;;;;;;1.00;0.80;;;;;;;;;;105716;1265;59012;-52
2023/04/07 04:50:07;;;;;;;1.70;0.80;;;;;;;;;;106087;1263;59227;-52
2023/04/07 04:52:38;;;;;;;0.70;0.70;;;;;;;;;;105493;1264;59178;-52
2023/04/07 04:55:07;;;;;;;1.10;1.00;;;;;;;;;;105602;1264;60866;-52
2023/04/07 04:57:35;;;;;;;1.10;1.00;;;;;;;;;;104518;1262;59769;-51
2023/04/07 05:00:08;;;;;;;2.70;2.50;;;;;;;;;;104513;1265;59627;-52
2023/04/07 05:02:37;;;;;;;12.20;9.60;;;;;;;;;;105079;1262;61606;-50
2023/04/07 05:05:06;;;;;;;2.80;2.50;;;;;;;;;;104769;1264;59937;-52
2023/04/07 05:07:39;;;;;;;3.20;1.60;;;;;;;;;;104490;1265;61125;-52
2023/04/07 05:10:08;;;;;;;2.10;2.00;;;;;;;;;;104551;1264;60314;-51
2023/04/07 05:12:38;;;;;;;3.50;3.20;;;;;;;;;;104280;1263;59611;-51
2023/04/07 05:15:07;;;;;;;7.90;6.40;;;;;;;;;;105460;1264;61358;-52
2023/04/07 05:17:35;;;;;;;2.80;2.60;;;;;;;;;;104827;1264;59656;-52
2023/04/07 05:20:04;;;;;;;1.70;1.60;;;;;;;;;;104490;1263;60728;-53
2023/04/07 05:22:39;;;;;;;2.10;1.20;;;;;;;;;;104833;1268;59661;-54
2023/04/07 05:25:08;;;;;;;0.90;0.70;;;;;;;;;;104743;1264;59545;-53
2023/04/07 05:27:37;;;;;;;0.60;0.60;;;;;;;;;;104905;1265;61063;-51
2023/04/07 05:30:11;;;;;;;0.80;0.80;;;;;;;;;;104588;1263;59517;-52
2023/04/07 05:32:40;;;;;;;0.90;0.90;;;;;;;;;;104657;1267;60933;-52
2023/04/07 05:35:15;;;;;;;0.70;0.70;;;;;;;;;;104577;1265;59752;-52
2023/04/07 05:37:55;;;;;;;0.60;0.60;;;;;;;;;;104746;1264;59511;-52
2023/04/07 05:40:24;;;;;;;0.60;0.60;;;;;;;;;;108131;1256;60043;-51
2023/04/07 05:42:52;;;;;;;0.60;0.60;;;;;;;;;;107530;1256;59006;-52
2023/04/07 05:45:20;;;;;;;0.60;0.60;;;;;;;;;;104923;1257;60743;-51
2023/04/07 05:47:49;;;;;;;0.60;0.60;;;;;;;;;;106008;1255;59756;-51
2023/04/07 05:50:24;;;;;;;0.70;0.70;;;;;;;;;;105505;1260;59539;-51
2023/04/07 05:52:52;;;;;;;0.80;0.70;;;;;;;;;;108912;1255;61589;-53
2023/04/07 05:55:26;;;;;;;0.50;0.50;;;;;;;;;;108847;1257;57714;-53
2023/04/07 05:57:54;;;;;;;0.50;0.50;;;;;;;;;;108838;1256;59752;-53
2023/04/07 06:00:24;;;;;;;0.60;0.60;;;;;;;;;;108867;1256;58850;-54
2023/04/07 06:03:00;;;;;;;0.50;0.50;;;;;;;;;;106010;1256;60371;-53
2023/04/07 06:05:31;;;;;;;0.40;0.40;;;;;;;;;;108805;1256;62136;-53
2023/04/07 06:07:59;;;;;;;0.40;0.40;;;;;;;;;;108788;1256;58615;-53
2023/04/07 06:10:27;;;;;;;0.70;0.70;;;;;;;;;;108797;1256;59435;-53
2023/04/07 06:12:55;;;;;;;0.60;0.50;;;;;;;;;;109001;1256;57562;-53
2023/04/07 06:15:23;;;;;;;0.60;0.60;;;;;;;;;;108928;1255;57808;-53
2023/04/07 06:17:54;;;;;;;0.60;0.60;;;;;;;;;;108912;1255;59955;-53
2023/04/07 06:20:26;;;;;;;0.60;0.60;;;;;;;;;;108718;1256;58037;-53
2023/04/07 06:22:54;;;;;;;0.60;0.60;;;;;;;;;;108918;1255;59455;-53
2023/04/07 06:25:22;;;;;;;0.60;0.60;;;;;;;;;;108918;1255;57872;-53
2023/04/07 06:27:50;;;;;;;0.50;0.50;;;;;;;;;;108863;1255;57669;-52
2023/04/07 06:30:18;;;;;;;0.70;0.70;;;;;;;;;;108584;1258;61191;-52
2023/04/07 06:32:47;;;;;;;0.60;0.60;;;;;;;;;;108568;1256;59228;-52
2023/04/07 06:35:15;;;;;;;0.50;0.50;;;;;;;;;;108824;1256;61988;-52
2023/04/07 06:37:45;;;;;;;1.90;0.50;;;;;;;;;;108857;1256;57631;-52
2023/04/07 06:40:12;;;;;;;1.50;0.60;;;;;;;;;;108882;1256;57763;-53
2023/04/07 06:42:40;;;;;;;0.60;0.60;;;;;;;;;;108909;1255;61163;-52
2023/04/07 06:45:17;;;;;;;0.70;0.70;;;;;;;;;;108625;1256;59338;-53
2023/04/07 06:47:45;;;;;;;0.60;0.60;;;;;;;;;;106832;1255;59562;-50
2023/04/07 06:50:13;;;;;;;0.50;0.50;;;;;;;;;;105187;1260;59746;-51
2023/04/07 06:52:42;;;;;;;0.70;0.70;;;;;;;;;;107595;1258;58190;-52
2023/04/07 06:55:15;;;;;;;0.60;0.60;;;;;;;;;;105281;1258;61395;-52
2023/04/07 06:57:44;;;;;;;0.60;0.60;;;;;;;;;;105278;1256;59747;-51
2023/04/07 07:00:12;;;;;;;0.60;0.60;;;;;;;;;;105325;1259;61038;-51
2023/04/07 07:02:40;;;;;;;0.80;0.80;;;;;;;;;;105468;1256;59856;-51
2023/04/07 07:05:10;;;;;;;0.80;0.80;;;;;;;;;;108775;1256;57595;-52
2023/04/07 07:07:38;;;;;;;1.20;1.00;;;;;;;;;;108618;1255;60912;-51
2023/04/07 07:10:07;;;;;;;0.80;0.80;;;;;;;;;;105505;1257;59629;-52
2023/04/07 07:12:38;;;;;;;0.80;0.80;;;;;;;;;;105271;1256;59834;-50
2023/04/07 07:15:06;;;;;;;2.60;0.90;;;;;;;;;;105633;1260;59923;-52
2023/04/07 07:17:34;;;;;;;1.90;0.90;;;;;;;;;;106447;1258;59558;-52
2023/04/07 07:20:02;;;;;;;1.10;1.00;;;;;;;;;;105208;1256;61204;-52
2023/04/07 07:22:31;;;;;;;1.20;1.10;;;;;;;;;;105445;1255;59501;-53
2023/04/07 07:24:59;;;;;;;3.90;3.60;;;;;;;;;;105314;1256;60430;-51
2023/04/07 07:27:27;;;;;;;1.10;1.00;;;;;;;;;;107145;1256;59601;-50
2023/04/07 07:29:55;;;;;;;4.70;4.40;;;;;;;;;;105448;1260;58965;-49
2023/04/07 07:32:23;;;;;;;2.60;2.50;;;;;;;;;;106224;1256;61372;-51
2023/04/07 07:34:51;;;;;;;1.60;1.10;;;;;;;;;;105536;1256;59892;-49
2023/04/07 07:37:22;;;;;;;1.90;1.00;;;;;;;;;;105360;1256;60793;-52
2023/04/07 07:39:50;;;;;;;1.70;0.80;;;;;;;;;;104716;1256;59917;-52
2023/04/07 07:42:18;;;;;;;1.00;0.90;;;;;;;;;;104884;1258;59701;-48
2023/04/07 07:44:46;;;;;;;1.30;1.20;;;;;;;;;;106260;1255;61353;-50
2023/04/07 07:47:14;;;;;;;1.10;0.90;;;;;;;;;;105843;1256;59608;-51
2023/04/07 07:49:42;;;;;;;4.70;4.40;;;;;;;;;;104788;1258;60625;-49
2023/04/07 07:52:10;;;;;;;1.40;1.30;;;;;;;;;;104577;1258;59757;-50
2023/04/07 07:54:37;;;;;;;1.10;1.00;;;;;;;;;;104889;1256;59605;-51
2023/04/07 07:57:05;;;;;;;1.40;1.30;;;;;;;;;;104778;1256;61305;-52
2023/04/07 07:59:34;;;;;;;1.10;1.00;;;;;;;;;;104441;1257;59688;-51
2023/04/07 08:02:03;;;;;;;0.90;0.90;;;;;;;;;;104808;1260;60759;-51
2023/04/07 08:04:32;;;;;;;1.20;1.10;;;;;;;;;;104673;1260;59562;-51
2023/04/07 08:07:00;;;;;;;15.50;13.70;;;;;;;;;;105419;1259;60349;-52
2023/04/07 08:09:29;;;;;;;2.10;1.90;;;;;;;;;;104556;1256;62984;-51
2023/04/07 08:11:57;;;;;;;2.00;1.50;;;;;;;;;;104813;1256;59618;-52
2023/04/07 08:14:26;;;;;;;1.80;1.30;;;;;;;;;;105020;1259;60597;-51
2023/04/07 08:16:54;;;;;;;1.50;1.40;;;;;;;;;;105034;1260;59539;-49
2023/04/07 08:19:22;;;;;;;1.70;1.60;;;;;;;;;;105137;1260;59057;-53
2023/04/07 08:21:50;;;;;;;1.80;1.60;;;;;;;;;;104826;1256;61400;-47
2023/04/07 08:24:18;;;;;;;1.60;1.50;;;;;;;;;;104763;1255;59623;-51
2023/04/07 08:26:47;;;;;;;1.50;1.30;;;;;;;;;;107405;1255;60810;-51
2023/04/07 08:29:15;;;;;;;1.50;1.40;;;;;;;;;;104794;1256;59895;-52
2023/04/07 08:31:43;;;;;;;1.30;1.20;;;;;;;;;;105305;1256;59897;-53
2023/04/07 08:34:12;;;;;;;1.30;1.20;;;;;;;;;;107166;1259;60022;-52
2023/04/07 08:36:42;;;;;;;1.70;1.20;;;;;;;;;;105700;1256;59908;-51
2023/04/07 08:39:10;;;;;;;1.10;1.00;;;;;;;;;;108949;1255;60019;-53
2023/04/07 08:41:39;;;;;;;1.40;1.30;;;;;;;;;;106402;1256;60365;-53
2023/04/07 08:44:10;;;;;;;1.00;0.90;;;;;;;;;;105253;1261;60865;-53
2023/04/07 08:46:39;;;;;;;1.20;1.00;;;;;;;;;;108347;1258;62280;-53
2023/04/07 08:49:08;;;;;;;1.20;0.90;;;;;;;;;;105301;1258;60429;-53
2023/04/07 08:51:36;;;;;;;1.60;1.00;;;;;;;;;;107002;1255;61262;-49
2023/04/07 08:54:06;;;;;;;1.60;1.50;;;;;;;;;;105268;1256;60600;-51
2023/04/07 08:56:40;;;;;;;1.00;0.90;;;;;;;;;;105037;1255;60436;-50
2023/04/07 08:59:09;;;;;;;1.30;1.20;;;;;;;;;;108258;1256;62142;-50
2023/04/07 09:01:37;;;;;;;1.30;1.20;;;;;;;;;;108930;1255;58672;-52
2023/04/07 09:04:06;;;;;;;1.20;1.10;;;;;;;;;;108861;1256;59766;-53
2023/04/07 09:06:34;;;;;;;1.00;0.90;;;;;;;;;;108822;1255;59621;-52
2023/04/07 09:09:05;;;;;;;1.00;0.90;;;;;;;;;;108952;1256;59067;-54
2023/04/07 09:11:36;;;;;;;1.40;1.10;;;;;;;;;;108954;1255;60674;-52
2023/04/07 09:14:04;;;;;;;1.00;0.90;;;;;;;;;;106141;1258;59004;-54
2023/04/07 09:16:32;;;;;;;1.30;1.10;;;;;;;;;;104698;1256;60960;-51
2023/04/07 09:19:00;;;;;;;1.40;1.30;;;;;;;;;;108937;1255;58363;-53
2023/04/07 09:21:50;;;;;;;1.10;1.00;;;;;;;;;;109029;1255;58466;-54
2023/04/07 09:24:22;;;;;;;1.00;0.90;;;;;;;;;;108957;1255;61220;-53
2023/04/07 09:26:50;;;;;;;1.90;1.00;;;;;;;;;;108916;1255;58696;-53
2023/04/07 09:29:18;;;;;;;1.40;1.10;;;;;;;;;;105485;1256;62392;-52
2023/04/07 09:31:54;;;;;;;1.00;0.90;;;;;;;;;;105311;1260;60476;-52
2023/04/07 09:34:23;;;;;;;1.20;1.10;;;;;;;;;;108828;1255;58387;-52
2023/04/07 09:36:51;;;;;;;1.40;1.30;;;;;;;;;;108777;1256;62191;-54
2023/04/07 09:39:19;;;;;;;1.40;1.30;;;;;;;;;;108829;1256;59570;-53
2023/04/07 09:41:47;;;;;;;1.00;0.90;;;;;;;;;;108789;1255;61514;-53
2023/04/07 09:44:15;;;;;;;1.40;1.30;;;;;;;;;;107935;1255;59150;-48
2023/04/07 09:46:51;;;;;;;1.30;1.10;;;;;;;;;;104750;1256;60559;-51
2023/04/07 09:49:20;;;;;;;1.30;1.20;;;;;;;;;;105220;1255;62149;-50
2023/04/07 09:51:51;;;;;;;1.30;1.20;;;;;;;;;;108763;1256;58987;-52
2023/04/07 09:54:36;;;;;;;1.60;1.30;;;;;;;;;;106438;1255;59435;-52
2023/04/07 09:57:05;;;;;;;1.30;1.20;;;;;;;;;;105168;1256;60525;-53
2023/04/07 09:59:36;;;;;;;1.90;1.10;;;;;;;;;;106348;1259;60438;-53
2023/04/07 10:02:04;;;;;;;1.20;1.10;;;;;;;;;;108768;1256;62307;-52
2023/04/07 10:04:33;;;;;;;1.10;0.80;;;;;;;;;;107314;1255;59872;-52
2023/04/07 10:07:02;;;;;;;1.00;0.90;;;;;;;;;;105702;1256;60474;-55
2023/04/07 10:09:30;;;;;;;1.10;1.00;;;;;;;;;;105227;1260;60439;-53
2023/04/07 10:11:58;;;;;;;1.30;1.00;;;;;;;;;;105500;1258;60764;-53
2023/04/07 10:14:27;;;;;;;1.00;0.90;;;;;;;;;;105255;1256;62270;-52
2023/04/07 10:16:58;;;;;;;1.00;0.80;;;;;;;;;;105547;1260;60429;-52
2023/04/07 10:19:28;;;;;;;2.70;1.30;;;;;;;;;;104987;1256;60722;-52
2023/04/07 10:21:56;;;;;;;1.70;1.60;;;;;;;;;;104611;1256;60553;-51
2023/04/07 10:24:48;;;;;;;1.20;1.10;;;;;;;;;;104994;1256;60435;-53
2023/04/07 10:27:18;;;;;;;1.20;1.10;;;;;;;;;;105492;1256;63283;-53
2023/04/07 10:29:47;;;;;;;1.20;1.10;;;;;;;;;;105014;1260;60339;-52
2023/04/07 10:32:16;;;;;;;0.80;0.80;;;;;;;;;;105682;1256;60932;-52
2023/04/07 10:34:54;;;;;;;1.50;1.00;;;;;;;;;;105326;1256;60310;-53
2023/04/07 10:37:22;;;;;;;1.90;0.90;;;;;;;;;;105481;1257;60519;-53
2023/04/07 10:39:51;;;;;;;1.30;1.20;;;;;;;;;;105751;1256;62203;-53
2023/04/07 10:42:38;;;;;;;1.40;0.90;;;;;;;;;;105327;1259;60557;-52
2023/04/07 10:45:06;;;;;;;1.10;1.00;;;;;;;;;;105243;1259;60573;-54
2023/04/07 10:48:02;;;;;;;1.30;1.10;;;;;;;;;;104880;1256;60608;-52
2023/04/07 10:50:30;;;;;;;1.20;1.10;;;;;;;;;;105974;1256;60425;-55
2023/04/07 10:53:08;;;;;;;2.90;1.20;;;;;;;;;;105336;1256;61029;-54
2023/04/07 10:55:36;;;;;;;1.00;0.90;;;;;;;;;;105234;1256;60325;-52
2023/04/07 10:58:15;;;;;;;1.20;1.10;;;;;;;;;;108019;1256;60720;-51
2023/04/07 11:00:56;;;;;;;1.00;0.90;;;;;;;;;;104632;1256;60523;-51
2023/04/07 11:03:24;;;;;;;1.30;0.80;;;;;;;;;;104726;1260;60293;-51
2023/04/07 11:06:09;;;;;;;0.80;0.80;;;;;;;;;;105802;1260;61894;-53
2023/04/07 11:08:41;;;;;;;0.80;0.80;;;;;;;;;;105220;1259;60430;-53
2023/04/07 11:11:11;;;;;;;0.70;0.70;;;;;;;;;;105393;1259;60439;-51
2023/04/07 11:13:40;;;;;;;1.50;0.90;;;;;;;;;;104670;1256;60542;-53
2023/04/07 11:16:08;;;;;;;6.20;1.10;;;;;;;;;;104945;1259;60435;-52
2023/04/07 11:18:40;;;;;;;3.00;0.60;;;;;;;;;;107506;1260;61970;-53
2023/04/07 11:21:09;;;;;;;0.60;0.60;;;;;;;;;;106609;1255;59224;-51
2023/04/07 11:23:38;;;;;;;0.70;0.60;;;;;;;;;;105119;1259;60620;-53
2023/04/07 11:26:12;;;;;;;0.70;0.70;;;;;;;;;;105177;1259;59755;-52
2023/04/07 11:28:46;;;;;;;0.90;0.70;;;;;;;;;;104833;1256;60451;-52
2023/04/07 11:31:14;;;;;;;;;;;;;;;;;;104972;1256;62186;-54
2023/04/07 11:33:42;;;;;;;2.00;0.70;;;;;;;;;;106162;1257;59974;-50
2023/04/07 11:36:10;;;;;;;1.60;1.00;;;;;;;;;;105324;1257;60504;-52
2023/04/07 11:38:38;;;;;;;1.00;0.90;;;;;;;;;;106493;1256;60415;-53
2023/04/07 11:41:10;;;;;;;1.30;1.20;;;;;;;;;;105355;1255;60639;-53
2023/04/07 11:43:41;;;;;;;2.50;1.60;;;;;;;;;;105126;1259;62179;-52
2023/04/07 11:46:10;;;;;;;0.90;0.90;;;;;;;;;;106924;1256;60436;-53
2023/04/07 11:48:41;;;;;;;4.30;0.80;;;;;;;;;;105185;1256;60651;-53
2023/04/07 11:51:19;;;;;;;0.80;0.80;;;;;;;;;;104959;1256;60543;-54
2023/04/07 11:53:47;;;;;;;0.90;0.80;;;;;;;;;;108874;1255;58539;-55
2023/04/07 11:56:15;;;;;;;1.50;0.80;;;;;;;;;;108840;1256;62263;-55
2023/04/07 11:58:47;;;;;;;1.10;1.00;;;;;;;;;;108950;1256;59210;-55
2023/04/07 12:01:15;;;;;;;0.80;0.80;;;;;;;;;;108934;1256;60891;-54
2023/04/07 12:04:00;;;;;;;0.70;0.60;;;;;;;;;;107327;1255;60895;-54
2023/04/07 12:06:33;;;;;;;0.70;0.50;;;;;;;;;;108999;1255;58708;-54
2023/04/07 12:09:04;;;;;;;0.90;0.60;;;;;;;;;;109049;1255;61010;-54
2023/04/07 12:11:32;;;;;;;0.80;0.50;;;;;;;;;;108986;1256;59495;-54
2023/04/07 12:14:04;;;;;;;0.60;0.50;;;;;;;;;;108099;1259;60777;-52
2023/04/07 12:16:36;;;;;;;1.00;0.80;;;;;;;;;;109040;1255;58217;-54
2023/04/07 12:19:04;;;;;;;0.70;0.60;;;;;;;;;;108965;1256;58431;-54
2023/04/07 12:21:34;;;;;;;0.60;0.60;;;;;;;;;;108983;1257;63449;-54
2023/04/07 12:24:02;;;;;;;0.60;0.60;;;;;;;;;;109009;1256;58987;-54
2023/04/07 12:26:30;;;;;;;1.20;0.80;;;;;;;;;;109013;1256;60813;-54
2023/04/07 12:29:03;;;;;;;1.40;0.80;;;;;;;;;;108998;1256;58208;-54
2023/04/07 12:31:32;;;;;;;0.70;0.60;;;;;;;;;;109004;1256;59791;-51
2023/04/07 12:34:01;;;;;;;0.60;0.50;;;;;;;;;;108964;1256;62254;-50
2023/04/07 12:36:29;;;;;;;0.70;0.70;;;;;;;;;;109018;1255;58305;-51
2023/04/07 12:38:57;;;;;;;0.60;0.60;;;;;;;;;;106977;1256;60409;-47
2023/04/07 12:41:26;;;;;;;0.60;0.60;;;;;;;;;;105414;1260;60471;-48
2023/04/07 12:43:54;;;;;;;0.80;0.70;;;;;;;;;;106485;1256;60433;-53
2023/04/07 12:46:25;;;;;;;0.80;0.60;;;;;;;;;;105862;1256;62100;-51
2023/04/07 12:48:53;;;;;;;0.80;0.50;;;;;;;;;;106722;1259;60381;-52
2023/04/07 12:51:21;;;;;;;0.70;0.70;;;;;;;;;;106109;1256;60621;-51
2023/04/07 12:53:49;;;;;;;0.90;0.70;;;;;;;;;;105312;1256;60560;-47
2023/04/07 12:56:18;;;;;;;0.80;0.80;;;;;;;;;;106291;1259;60353;-52
2023/04/07 12:58:46;;;;;;;0.80;0.80;;;;;;;;;;106599;1259;62077;-52
2023/04/07 13:01:15;;;;;;;0.70;0.70;;;;;;;;;;108440;1256;58494;-49
2023/04/07 13:03:44;;;;;;;1.70;0.60;;;;;;;;;;106409;1260;60927;-51
2023/04/07 13:06:17;;;;;;;2.10;0.60;;;;;;;;;;104894;1262;60362;-49
2023/04/07 13:08:45;;;;;;;0.70;0.70;;;;;;;;;;104870;1256;60333;-52
2023/04/07 13:11:13;;;;;;;1.70;0.70;;;;;;;;;;105032;1256;62910;-49
2023/04/07 13:13:41;;;;;;;0.70;0.70;;;;;;;;;;105020;1256;60516;-48
2023/04/07 13:16:09;;;;;;;0.70;0.70;;;;;;;;;;105674;1256;60876;-52
2023/04/07 13:18:37;;;;;;;0.70;0.70;;;;;;;;;;105083;1258;60422;-52
2023/04/07 13:21:05;;;;;;;0.60;0.60;;;;;;;;;;105327;1256;60326;-50
2023/04/07 13:23:53;;;;;;;0.90;0.80;;;;;;;;;;105398;1259;62277;-52
2023/04/07 13:26:21;;;;;;;0.70;0.60;;;;;;;;;;105506;1256;60528;-51
2023/04/07 13:28:49;;;;;;;1.60;0.60;;;;;;;;;;105321;1259;60557;-50
2023/04/07 13:31:17;;;;;;;0.80;0.70;;;;;;;;;;105623;1259;60560;-50
2023/04/07 13:33:46;;;;;;;0.70;0.70;;;;;;;;;;105656;1255;60436;-53